Time;durP1;ratioP1;P1;durP2;ratioP2;P2;SDS_P1;SDS_P2;PMS_P1;PMS_P2;Temp;Humidity;BMP_temperature;BMP_pressure;BME280_temperature;BME280_humidity;BME280_pressure;Samples;Min_cycle;Max_cycle;Signal;HPM_P1;HPM_P2
2023/09/26 00:01:07;;;;;;;5.22;2.80;;;;;;;;;;13057572;22;20372;-89
2023/09/26 00:06:20;;;;;;;3.80;2.58;;;;;;;;;;13051923;22;20918;-89
2023/09/26 00:11:24;;;;;;;3.75;2.60;;;;;;;;;;13051832;22;20361;-90
2023/09/26 00:16:26;;;;;;;4.80;2.63;;;;;;;;;;13051110;22;20407;-89
2023/09/26 00:21:29;;;;;;;4.00;2.70;;;;;;;;;;13050335;22;20435;-89
2023/09/26 00:26:33;;;;;;;4.17;2.60;;;;;;;;;;13051502;22;20365;-88
2023/09/26 00:31:35;;;;;;;5.17;2.50;;;;;;;;;;13051504;22;20353;-90
2023/09/26 00:36:38;;;;;;;5.45;2.90;;;;;;;;;;13050566;22;20821;-89
2023/09/26 00:41:42;;;;;;;3.45;2.50;;;;;;;;;;13050321;22;20381;-89
2023/09/26 00:46:45;;;;;;;3.55;2.55;;;;;;;;;;13049922;22;20398;-89
2023/09/26 00:51:48;;;;;;;3.67;2.40;;;;;;;;;;13051459;22;20368;-89
2023/09/26 00:56:53;;;;;;;4.38;2.50;;;;;;;;;;13051194;22;20365;-89
2023/09/26 01:01:56;;;;;;;4.43;2.67;;;;;;;;;;13052073;22;20481;-89
2023/09/26 01:06:58;;;;;;;6.47;3.53;;;;;;;;;;13049630;22;20365;-88
2023/09/26 01:12:03;;;;;;;3.58;2.53;;;;;;;;;;13072108;22;20438;-89
2023/09/26 01:17:05;;;;;;;3.50;2.70;;;;;;;;;;13050181;22;20357;-89
2023/09/26 01:22:07;;;;;;;6.25;3.90;;;;;;;;;;13049848;22;20434;-88
2023/09/26 01:27:11;;;;;;;6.60;2.80;;;;;;;;;;13049549;22;20361;-88
2023/09/26 01:32:14;;;;;;;5.38;2.90;;;;;;;;;;13049550;22;20369;-89
2023/09/26 01:37:16;;;;;;;3.00;2.50;;;;;;;;;;13071277;22;20359;-89
2023/09/26 01:42:20;;;;;;;4.60;2.40;;;;;;;;;;13049709;22;20490;-90
2023/09/26 01:47:31;;;;;;;3.58;2.33;;;;;;;;;;13048081;22;20399;-89
2023/09/26 01:52:35;;;;;;;3.87;2.40;;;;;;;;;;13049426;22;20432;-89
2023/09/26 01:57:38;;;;;;;4.93;1.92;;;;;;;;;;13046184;22;20414;-89
2023/09/26 02:02:42;;;;;;;4.70;2.00;;;;;;;;;;13045337;22;20759;-90
2023/09/26 02:07:45;;;;;;;3.40;2.03;;;;;;;;;;13047473;22;20373;-89
2023/09/26 02:12:50;;;;;;;4.13;2.33;;;;;;;;;;13048358;22;20361;-89
2023/09/26 02:17:53;;;;;;;3.40;2.15;;;;;;;;;;13053610;22;20430;-90
2023/09/26 02:22:56;;;;;;;2.67;2.30;;;;;;;;;;13051226;22;20403;-89
2023/09/26 02:28:00;;;;;;;4.10;2.60;;;;;;;;;;13054598;22;20357;-89
2023/09/26 02:33:02;;;;;;;2.70;2.10;;;;;;;;;;13047948;22;20467;-89
2023/09/26 02:38:05;;;;;;;3.75;2.10;;;;;;;;;;13047576;22;20442;-89
2023/09/26 02:43:09;;;;;;;6.30;3.00;;;;;;;;;;13047134;22;20450;-89
2023/09/26 02:48:11;;;;;;;4.72;2.40;;;;;;;;;;13047733;22;20411;-89
2023/09/26 02:53:14;;;;;;;2.90;2.00;;;;;;;;;;13047598;22;20408;-89
2023/09/26 02:58:17;;;;;;;4.15;2.03;;;;;;;;;;13047669;22;20365;-89
2023/09/26 03:03:20;;;;;;;5.03;2.00;;;;;;;;;;13047678;22;20929;-89
2023/09/26 03:08:22;;;;;;;4.40;2.15;;;;;;;;;;13047478;22;20365;-89
2023/09/26 03:13:27;;;;;;;3.53;1.80;;;;;;;;;;13049044;22;20357;-89
2023/09/26 03:18:29;;;;;;;3.58;1.90;;;;;;;;;;13048154;22;20829;-90
2023/09/26 03:23:32;;;;;;;2.90;1.80;;;;;;;;;;13047662;22;20381;-90
2023/09/26 03:28:36;;;;;;;2.88;1.88;;;;;;;;;;13047594;22;20426;-89
2023/09/26 03:33:39;;;;;;;4.57;2.20;;;;;;;;;;13048400;22;20407;-89
2023/09/26 03:38:41;;;;;;;2.53;1.97;;;;;;;;;;13048231;22;20361;-89
2023/09/26 03:43:45;;;;;;;3.75;1.95;;;;;;;;;;13047913;22;20381;-89
2023/09/26 03:48:49;;;;;;;3.72;2.00;;;;;;;;;;13047786;22;20423;-89
2023/09/26 03:53:52;;;;;;;3.85;2.15;;;;;;;;;;13050762;22;20416;-89
2023/09/26 03:58:57;;;;;;;3.37;2.07;;;;;;;;;;13047108;22;20414;-89
2023/09/26 04:03:59;;;;;;;3.72;2.28;;;;;;;;;;13046470;22;21080;-89
2023/09/26 04:09:02;;;;;;;2.88;2.13;;;;;;;;;;13069012;22;20369;-89
2023/09/26 04:14:06;;;;;;;4.67;2.60;;;;;;;;;;13050854;22;20426;-89
2023/09/26 04:19:09;;;;;;;4.93;2.20;;;;;;;;;;13049956;22;20361;-89
2023/09/26 04:24:12;;;;;;;3.53;2.30;;;;;;;;;;13050848;22;20420;-89
2023/09/26 04:29:16;;;;;;;3.85;2.05;;;;;;;;;;13051160;22;20352;-89
2023/09/26 04:34:18;;;;;;;3.65;2.58;;;;;;;;;;13052241;22;20372;-90
2023/09/26 04:39:21;;;;;;;4.20;3.30;;;;;;;;;;13053666;22;20434;-89
2023/09/26 04:44:25;;;;;;;3.70;2.53;;;;;;;;;;13051447;22;20381;-89
2023/09/26 04:49:27;;;;;;;4.30;2.50;;;;;;;;;;13050201;22;20391;-90
2023/09/26 04:54:30;;;;;;;7.40;2.30;;;;;;;;;;13053492;22;20392;-90
2023/09/26 04:59:33;;;;;;;4.50;2.20;;;;;;;;;;13072291;22;20369;-90
2023/09/26 05:04:36;;;;;;;4.80;2.20;;;;;;;;;;13050374;22;20381;-91
2023/09/26 05:09:38;;;;;;;3.92;2.30;;;;;;;;;;13049555;22;20969;-90
2023/09/26 05:14:42;;;;;;;5.90;2.25;;;;;;;;;;13050091;22;20411;-90
2023/09/26 05:19:45;;;;;;;3.05;2.35;;;;;;;;;;13072266;22;20418;-90
2023/09/26 05:24:47;;;;;;;3.45;2.65;;;;;;;;;;13048442;22;20385;-91
2023/09/26 05:29:51;;;;;;;3.27;2.17;;;;;;;;;;13064411;22;20430;-90
2023/09/26 05:34:54;;;;;;;5.15;2.65;;;;;;;;;;13049243;22;20369;-90
2023/09/26 05:39:56;;;;;;;3.35;2.20;;;;;;;;;;13069509;22;20357;-88
2023/09/26 05:45:00;;;;;;;5.73;2.33;;;;;;;;;;13047551;22;20381;-90
2023/09/26 05:50:04;;;;;;;6.05;2.55;;;;;;;;;;13044453;22;20516;-88
2023/09/26 05:55:07;;;;;;;4.22;2.58;;;;;;;;;;13047619;22;20353;-90
2023/09/26 06:00:13;;;;;;;4.93;2.20;;;;;;;;;;13046774;22;20416;-90
2023/09/26 06:05:15;;;;;;;4.33;2.30;;;;;;;;;;13047882;22;20841;-89
2023/09/26 06:10:18;;;;;;;5.20;2.38;;;;;;;;;;13046431;22;20414;-90
2023/09/26 06:15:23;;;;;;;3.40;2.40;;;;;;;;;;13048608;22;20456;-90
2023/09/26 06:20:27;;;;;;;3.90;2.33;;;;;;;;;;13106166;22;20384;-90
2023/09/26 06:25:30;;;;;;;3.50;2.40;;;;;;;;;;13113835;22;20858;-90
2023/09/26 06:30:34;;;;;;;3.93;2.23;;;;;;;;;;13130402;22;20476;-89
2023/09/26 06:35:36;;;;;;;3.70;2.37;;;;;;;;;;13111737;22;20742;-89
2023/09/26 06:40:39;;;;;;;7.50;2.33;;;;;;;;;;13112297;22;20412;-89
2023/09/26 06:45:43;;;;;;;5.90;2.43;;;;;;;;;;13110844;22;20456;-89
2023/09/26 06:50:45;;;;;;;3.27;2.20;;;;;;;;;;13112779;22;21257;-90
2023/09/26 06:55:49;;;;;;;3.45;2.63;;;;;;;;;;13114465;22;20355;-90
2023/09/26 07:00:53;;;;;;;3.30;2.38;;;;;;;;;;13117486;22;20398;-90
2023/09/26 07:05:55;;;;;;;3.53;2.45;;;;;;;;;;13114280;22;20383;-90
2023/09/26 07:11:03;;;;;;;4.13;2.15;;;;;;;;;;13112403;22;20833;-89
2023/09/26 07:16:09;;;;;;;4.35;2.50;;;;;;;;;;13111480;22;20432;-88
2023/09/26 07:21:11;;;;;;;3.83;2.45;;;;;;;;;;13133592;22;20367;-89
2023/09/26 07:26:17;;;;;;;5.18;2.80;;;;;;;;;;13111987;22;20375;-90
2023/09/26 07:31:20;;;;;;;4.18;2.50;;;;;;;;;;13111475;22;20408;-89
2023/09/26 07:36:23;;;;;;;5.35;3.10;;;;;;;;;;13111793;22;20360;-90
2023/09/26 07:41:26;;;;;;;5.13;3.00;;;;;;;;;;13111992;22;20397;-90
2023/09/26 07:46:30;;;;;;;4.95;2.83;;;;;;;;;;13113166;22;20912;-90
2023/09/26 07:51:32;;;;;;;5.47;2.90;;;;;;;;;;13116565;22;20424;-90
2023/09/26 07:56:35;;;;;;;6.40;3.50;;;;;;;;;;13114136;22;20355;-89
2023/09/26 08:01:39;;;;;;;4.53;3.25;;;;;;;;;;13135883;22;20928;-89
2023/09/26 08:06:42;;;;;;;4.80;3.10;;;;;;;;;;13110690;22;20440;-90
2023/09/26 08:11:44;;;;;;;4.70;3.22;;;;;;;;;;13115418;22;20356;-90
2023/09/26 08:16:49;;;;;;;5.90;3.00;;;;;;;;;;13114285;22;20397;-87
2023/09/26 08:21:51;;;;;;;6.82;3.20;;;;;;;;;;13140299;22;20385;-90
2023/09/26 08:26:53;;;;;;;4.60;2.90;;;;;;;;;;13136755;22;21012;-90
2023/09/26 08:31:57;;;;;;;5.00;3.03;;;;;;;;;;13113936;22;20367;-90
2023/09/26 08:36:59;;;;;;;4.25;3.35;;;;;;;;;;13114485;22;20416;-89
2023/09/26 08:42:04;;;;;;;5.53;3.67;;;;;;;;;;13114794;22;20435;-90
2023/09/26 08:47:08;;;;;;;7.43;4.60;;;;;;;;;;13085754;22;20600;-90
2023/09/26 08:52:10;;;;;;;4.53;3.50;;;;;;;;;;13112502;22;20385;-89
2023/09/26 08:57:13;;;;;;;4.72;3.60;;;;;;;;;;13113379;22;20429;-90
2023/09/26 09:02:17;;;;;;;5.05;3.60;;;;;;;;;;13113950;22;20359;-90
2023/09/26 09:07:20;;;;;;;7.70;3.38;;;;;;;;;;13113787;22;20776;-90
2023/09/26 09:12:22;;;;;;;6.10;3.45;;;;;;;;;;13113728;22;20440;-89
2023/09/26 09:17:26;;;;;;;4.53;3.20;;;;;;;;;;13132513;22;20375;-90
2023/09/26 09:22:29;;;;;;;5.18;3.70;;;;;;;;;;13115273;22;20364;-90
2023/09/26 09:27:34;;;;;;;5.22;3.33;;;;;;;;;;13111722;22;20379;-88
2023/09/26 09:32:38;;;;;;;5.03;3.03;;;;;;;;;;13113567;22;20392;-90
2023/09/26 09:37:42;;;;;;;4.35;2.92;;;;;;;;;;13112379;22;21628;-90
2023/09/26 09:42:45;;;;;;;4.20;2.97;;;;;;;;;;13111646;22;20778;-90
2023/09/26 09:47:49;;;;;;;4.10;2.95;;;;;;;;;;13113603;22;20707;-89
2023/09/26 09:52:56;;;;;;;3.70;2.78;;;;;;;;;;13136390;22;20355;-90
2023/09/26 09:58:02;;;;;;;5.65;3.10;;;;;;;;;;13111816;22;20360;-91
2023/09/26 10:03:06;;;;;;;3.53;2.95;;;;;;;;;;13112877;22;20841;-90
2023/09/26 10:08:09;;;;;;;4.18;2.88;;;;;;;;;;13133971;22;20440;-91
2023/09/26 10:13:12;;;;;;;4.75;3.20;;;;;;;;;;13134369;22;20385;-91
2023/09/26 10:18:17;;;;;;;4.93;3.20;;;;;;;;;;13113493;22;20364;-90
2023/09/26 10:23:19;;;;;;;5.20;3.03;;;;;;;;;;13111762;22;20368;-90
2023/09/26 10:28:22;;;;;;;6.55;3.55;;;;;;;;;;13113336;22;20430;-90
2023/09/26 10:33:29;;;;;;;5.75;3.20;;;;;;;;;;13109381;22;20389;-90
2023/09/26 10:38:31;;;;;;;4.93;3.25;;;;;;;;;;13111552;22;20371;-90
2023/09/26 10:43:34;;;;;;;7.15;4.00;;;;;;;;;;13110663;22;20416;-90
2023/09/26 10:48:38;;;;;;;6.70;3.03;;;;;;;;;;13112098;22;20722;-90
2023/09/26 10:53:42;;;;;;;4.00;2.90;;;;;;;;;;13105717;22;20359;-90
2023/09/26 10:58:45;;;;;;;4.85;2.92;;;;;;;;;;13107068;22;20351;-91
2023/09/26 11:03:49;;;;;;;3.72;2.90;;;;;;;;;;13104344;22;20375;-90
2023/09/26 11:08:52;;;;;;;4.30;3.15;;;;;;;;;;13104099;22;20371;-90
2023/09/26 11:13:54;;;;;;;4.00;3.25;;;;;;;;;;13106718;22;20438;-90
2023/09/26 11:18:58;;;;;;;4.75;3.22;;;;;;;;;;13109044;22;20397;-91
2023/09/26 11:24:00;;;;;;;4.47;3.15;;;;;;;;;;13120672;22;20436;-90
2023/09/26 11:29:02;;;;;;;5.28;3.05;;;;;;;;;;13111800;22;20695;-90
2023/09/26 11:34:06;;;;;;;5.10;3.13;;;;;;;;;;13112028;22;20464;-90
2023/09/26 11:39:14;;;;;;;7.25;3.22;;;;;;;;;;13138872;22;20393;-90
2023/09/26 11:44:18;;;;;;;5.47;2.90;;;;;;;;;;13118192;22;20439;-90
2023/09/26 11:49:24;;;;;;;4.43;2.72;;;;;;;;;;13138914;22;20444;-90
2023/09/26 11:54:28;;;;;;;5.72;3.05;;;;;;;;;;13118632;22;20451;-90
2023/09/26 11:59:30;;;;;;;6.10;4.05;;;;;;;;;;13116922;22;20367;-90
2023/09/26 12:04:34;;;;;;;4.20;3.15;;;;;;;;;;13117867;22;20371;-90
2023/09/26 12:09:36;;;;;;;4.50;2.90;;;;;;;;;;13115224;22;20363;-92
2023/09/26 12:14:39;;;;;;;4.30;2.58;;;;;;;;;;13115023;22;20359;-94
2023/09/26 12:19:42;;;;;;;4.95;3.20;;;;;;;;;;13106967;22;20374;-91
2023/09/26 12:24:44;;;;;;;3.53;2.85;;;;;;;;;;13106042;22;20480;-93
2023/09/26 12:29:47;;;;;;;6.03;3.00;;;;;;;;;;13107354;22;20375;-92
2023/09/26 12:34:51;;;;;;;4.93;2.83;;;;;;;;;;13125163;22;20371;-93
2023/09/26 12:39:53;;;;;;;4.15;2.95;;;;;;;;;;13130729;22;20413;-91
2023/09/26 12:44:56;;;;;;;5.10;3.30;;;;;;;;;;13121218;22;20379;-94
2023/09/26 12:50:00;;;;;;;5.15;3.33;;;;;;;;;;13102712;22;20413;-93
2023/09/26 12:55:04;;;;;;;6.45;2.85;;;;;;;;;;13124926;22;20468;-93
2023/09/26 13:00:09;;;;;;;5.47;3.20;;;;;;;;;;13102289;22;20839;-93
2023/09/26 13:05:13;;;;;;;6.00;3.20;;;;;;;;;;13106442;22;20433;-92
2023/09/26 13:10:16;;;;;;;7.13;3.30;;;;;;;;;;13101396;22;20448;-92
2023/09/26 13:15:19;;;;;;;4.32;3.30;;;;;;;;;;13101734;22;20351;-92
2023/09/26 13:20:22;;;;;;;5.45;3.35;;;;;;;;;;13106792;22;20754;-92
2023/09/26 13:25:25;;;;;;;6.85;3.42;;;;;;;;;;13110836;22;20379;-94
2023/09/26 13:30:28;;;;;;;9.00;3.42;;;;;;;;;;13108774;22;20902;-94
2023/09/26 13:35:32;;;;;;;6.75;3.33;;;;;;;;;;13131090;22;20808;-94
2023/09/26 13:40:34;;;;;;;6.53;3.20;;;;;;;;;;13108507;22;20363;-95
2023/09/26 13:45:37;;;;;;;5.37;3.27;;;;;;;;;;13105728;22;20842;-93
2023/09/26 13:50:40;;;;;;;4.68;3.40;;;;;;;;;;13103489;22;20375;-90
2023/09/26 13:55:43;;;;;;;6.23;3.20;;;;;;;;;;13129283;22;20843;-94
2023/09/26 14:00:45;;;;;;;7.20;3.47;;;;;;;;;;13131428;22;20411;-94
2023/09/26 14:05:49;;;;;;;4.80;3.08;;;;;;;;;;13109624;22;20448;-94
2023/09/26 14:10:51;;;;;;;5.25;3.45;;;;;;;;;;13113325;22;20393;-92
2023/09/26 14:15:53;;;;;;;6.03;3.17;;;;;;;;;;13136893;22;20367;-92
2023/09/26 14:20:58;;;;;;;5.05;3.00;;;;;;;;;;13139003;22;20382;-89
2023/09/26 14:26:01;;;;;;;6.53;3.53;;;;;;;;;;13116075;22;20421;-92
2023/09/26 14:31:03;;;;;;;6.45;3.20;;;;;;;;;;13123306;22;20401;-92
2023/09/26 14:36:07;;;;;;;6.35;3.13;;;;;;;;;;13113235;22;20672;-92
2023/09/26 14:41:10;;;;;;;4.30;2.97;;;;;;;;;;13109788;22;20352;-94
2023/09/26 14:46:12;;;;;;;5.67;3.10;;;;;;;;;;13112892;22;20436;-94
2023/09/26 14:51:16;;;;;;;5.75;2.90;;;;;;;;;;13114352;22;20371;-93
2023/09/26 14:56:19;;;;;;;4.70;2.87;;;;;;;;;;13112209;22;20360;-93
2023/09/26 15:01:22;;;;;;;8.13;3.30;;;;;;;;;;13112793;22;20420;-96
2023/09/26 15:06:25;;;;;;;5.30;3.15;;;;;;;;;;13114071;22;20379;-94
2023/09/26 15:11:28;;;;;;;5.85;3.15;;;;;;;;;;13111076;22;20719;-94
2023/09/26 15:16:30;;;;;;;5.82;3.20;;;;;;;;;;13125934;22;20386;-93
2023/09/26 15:21:36;;;;;;;4.60;3.10;;;;;;;;;;13100791;22;20379;-93
2023/09/26 15:26:38;;;;;;;5.13;2.95;;;;;;;;;;13096228;22;20375;-94
2023/09/26 15:31:40;;;;;;;4.97;2.97;;;;;;;;;;13114969;22;20367;-92
2023/09/26 15:36:44;;;;;;;4.70;2.90;;;;;;;;;;13064995;22;20371;-93
2023/09/26 15:41:46;;;;;;;5.85;3.20;;;;;;;;;;13100260;22;20402;-95
2023/09/26 15:46:51;;;;;;;7.60;3.80;;;;;;;;;;13105132;22;20726;-93
2023/09/26 15:51:55;;;;;;;6.15;3.25;;;;;;;;;;13104063;22;20393;-92
2023/09/26 15:56:58;;;;;;;6.43;3.30;;;;;;;;;;13104959;22;20393;-92
2023/09/26 16:02:00;;;;;;;10.50;3.10;;;;;;;;;;13103631;22;20424;-94
2023/09/26 16:07:04;;;;;;;6.37;3.23;;;;;;;;;;13124663;22;20409;-89
2023/09/26 16:12:07;;;;;;;7.15;3.78;;;;;;;;;;13129415;22;20371;-90
2023/09/26 16:17:12;;;;;;;9.13;3.65;;;;;;;;;;13121874;22;20473;-92
2023/09/26 16:22:16;;;;;;;7.53;3.65;;;;;;;;;;13103347;22;20375;-91
2023/09/26 16:27:18;;;;;;;7.75;4.15;;;;;;;;;;13105189;22;20916;-91
2023/09/26 16:32:21;;;;;;;9.02;3.50;;;;;;;;;;13138516;22;20352;-95
2023/09/26 16:37:25;;;;;;;7.40;3.80;;;;;;;;;;13108996;22;20367;-93
2023/09/26 16:42:27;;;;;;;7.95;3.92;;;;;;;;;;13104851;22;20851;-93
2023/09/26 16:47:30;;;;;;;5.57;3.33;;;;;;;;;;13131233;22;20448;-93
2023/09/26 16:52:34;;;;;;;6.95;3.60;;;;;;;;;;13131200;22;20351;-93
2023/09/26 16:57:37;;;;;;;9.27;3.80;;;;;;;;;;13132904;22;20363;-93
2023/09/26 17:02:39;;;;;;;7.90;3.95;;;;;;;;;;13114162;22;20393;-93
2023/09/26 17:07:43;;;;;;;9.60;4.38;;;;;;;;;;13111310;22;20383;-93
2023/09/26 17:12:45;;;;;;;8.00;4.10;;;;;;;;;;13115197;22;20360;-94
2023/09/26 17:17:47;;;;;;;6.90;4.33;;;;;;;;;;13135129;22;20394;-92
2023/09/26 17:22:51;;;;;;;7.43;4.40;;;;;;;;;;13115648;22;20360;-94
2023/09/26 17:27:53;;;;;;;9.80;4.53;;;;;;;;;;13135309;22;20405;-93
2023/09/26 17:32:56;;;;;;;10.02;4.68;;;;;;;;;;13112343;22;20363;-91
2023/09/26 17:38:00;;;;;;;8.15;4.57;;;;;;;;;;13112864;22;20363;-93
2023/09/26 17:43:02;;;;;;;8.10;4.67;;;;;;;;;;13111930;22;20815;-93
2023/09/26 17:48:05;;;;;;;10.25;4.47;;;;;;;;;;13111510;22;20441;-92
2023/09/26 17:53:09;;;;;;;8.03;4.07;;;;;;;;;;13085611;22;20370;-94
2023/09/26 17:58:11;;;;;;;6.30;4.40;;;;;;;;;;13113642;22;20730;-93
2023/09/26 18:03:14;;;;;;;7.38;4.10;;;;;;;;;;13133726;22;20393;-92
2023/09/26 18:08:18;;;;;;;6.27;3.97;;;;;;;;;;13112871;22;20371;-93
2023/09/26 18:13:20;;;;;;;11.95;4.03;;;;;;;;;;13114012;22;20389;-93
2023/09/26 18:18:23;;;;;;;7.13;4.28;;;;;;;;;;13110480;22;20874;-93
2023/09/26 18:23:27;;;;;;;7.57;4.40;;;;;;;;;;13113570;22;20359;-93
2023/09/26 18:28:31;;;;;;;9.07;4.72;;;;;;;;;;13112378;22;20846;-92
2023/09/26 18:33:34;;;;;;;7.82;4.30;;;;;;;;;;13134182;22;20350;-93
2023/09/26 18:38:39;;;;;;;8.00;4.43;;;;;;;;;;13115356;22;20343;-92
2023/09/26 18:43:41;;;;;;;6.22;4.60;;;;;;;;;;13110196;22;20431;-93
2023/09/26 18:48:44;;;;;;;9.02;5.00;;;;;;;;;;13113973;22;20436;-93
2023/09/26 18:53:48;;;;;;;7.38;4.40;;;;;;;;;;13105618;22;20359;-93
2023/09/26 18:58:50;;;;;;;8.13;4.55;;;;;;;;;;13102558;22;20371;-92
2023/09/26 19:03:53;;;;;;;11.02;5.53;;;;;;;;;;13104295;22;20371;-93
2023/09/26 19:08:56;;;;;;;10.50;6.05;;;;;;;;;;13103371;22;20367;-93
2023/09/26 19:13:59;;;;;;;10.27;5.43;;;;;;;;;;13105271;22;20916;-92
2023/09/26 19:19:01;;;;;;;8.88;4.90;;;;;;;;;;13116078;22;20405;-93
2023/09/26 19:24:09;;;;;;;8.45;5.15;;;;;;;;;;13103821;22;20491;-93
2023/09/26 19:29:13;;;;;;;8.00;5.15;;;;;;;;;;13104202;22;20463;-94
2023/09/26 19:34:16;;;;;;;9.27;4.88;;;;;;;;;;13099675;22;20380;-92
2023/09/26 19:39:21;;;;;;;9.15;5.30;;;;;;;;;;13104624;22;20448;-92
2023/09/26 19:44:24;;;;;;;10.80;5.43;;;;;;;;;;13128953;22;20363;-90
2023/09/26 19:49:29;;;;;;;6.60;4.80;;;;;;;;;;13111565;22;20371;-93
2023/09/26 19:54:33;;;;;;;7.20;5.17;;;;;;;;;;13129781;22;20371;-92
2023/09/26 19:59:35;;;;;;;8.43;5.07;;;;;;;;;;13108469;22;20707;-89
2023/09/26 20:04:37;;;;;;;7.28;5.00;;;;;;;;;;13113245;22;20378;-92
2023/09/26 20:09:41;;;;;;;9.90;5.85;;;;;;;;;;13108678;22;20387;-92
2023/09/26 20:14:45;;;;;;;7.65;5.00;;;;;;;;;;13110760;22;20427;-92
2023/09/26 20:19:48;;;;;;;7.07;4.70;;;;;;;;;;13112645;22;20772;-93
2023/09/26 20:24:52;;;;;;;6.95;5.03;;;;;;;;;;13105968;22;20375;-92
2023/09/26 20:29:55;;;;;;;8.32;4.97;;;;;;;;;;13102840;22;21004;-92
2023/09/26 20:34:58;;;;;;;8.32;4.80;;;;;;;;;;13107317;22;20371;-93
2023/09/26 20:40:01;;;;;;;7.03;4.67;;;;;;;;;;13109260;22;20371;-92
2023/09/26 20:45:05;;;;;;;7.00;5.20;;;;;;;;;;13104725;22;20401;-92
2023/09/26 20:50:07;;;;;;;7.82;5.50;;;;;;;;;;13104167;22;20379;-92
2023/09/26 20:55:11;;;;;;;8.97;5.17;;;;;;;;;;13104581;22;20409;-91
2023/09/26 21:00:14;;;;;;;7.88;5.05;;;;;;;;;;13106536;22;20378;-92
2023/09/26 21:05:17;;;;;;;8.17;4.97;;;;;;;;;;13107049;22;20408;-92
2023/09/26 21:10:20;;;;;;;9.00;5.65;;;;;;;;;;13107419;22;20382;-91
2023/09/26 21:15:23;;;;;;;7.87;5.33;;;;;;;;;;13106275;22;20375;-91
2023/09/26 21:20:26;;;;;;;9.57;5.40;;;;;;;;;;13108741;22;20371;-91
2023/09/26 21:25:29;;;;;;;7.40;5.43;;;;;;;;;;13122049;22;20433;-92
2023/09/26 21:30:32;;;;;;;9.87;5.80;;;;;;;;;;13110672;22;20379;-93
2023/09/26 21:35:34;;;;;;;8.13;5.35;;;;;;;;;;13126241;22;20371;-92
2023/09/26 21:40:38;;;;;;;9.20;5.33;;;;;;;;;;13134319;22;20417;-92
2023/09/26 21:45:40;;;;;;;9.75;5.00;;;;;;;;;;13112634;22;20401;-92
2023/09/26 21:50:43;;;;;;;7.05;5.30;;;;;;;;;;13108869;22;20397;-92
2023/09/26 21:55:47;;;;;;;7.07;5.22;;;;;;;;;;13108197;22;20363;-93
2023/09/26 22:00:49;;;;;;;6.35;5.00;;;;;;;;;;13109336;22;20363;-92
2023/09/26 22:05:51;;;;;;;6.60;4.30;;;;;;;;;;13110587;22;20397;-93
2023/09/26 22:10:55;;;;;;;8.75;4.50;;;;;;;;;;13112615;22;20379;-92
2023/09/26 22:15:57;;;;;;;6.68;4.50;;;;;;;;;;13109383;22;20359;-93
2023/09/26 22:21:00;;;;;;;9.02;4.63;;;;;;;;;;13106205;22;20371;-92
2023/09/26 22:26:12;;;;;;;5.68;4.45;;;;;;;;;;13111515;22;20385;-92
2023/09/26 22:31:14;;;;;;;7.70;4.55;;;;;;;;;;13113879;22;20456;-92
2023/09/26 22:36:16;;;;;;;7.55;4.80;;;;;;;;;;13114215;22;20393;-93
2023/09/26 22:41:20;;;;;;;8.00;4.60;;;;;;;;;;13114392;22;20425;-93
2023/09/26 22:46:22;;;;;;;8.80;4.37;;;;;;;;;;13129549;22;20409;-93
2023/09/26 22:51:25;;;;;;;10.18;4.63;;;;;;;;;;13114287;22;20375;-92
2023/09/26 22:56:28;;;;;;;6.80;4.35;;;;;;;;;;13114836;22;20426;-92
2023/09/26 23:01:31;;;;;;;7.15;4.50;;;;;;;;;;13118220;22;20420;-92
2023/09/26 23:06:34;;;;;;;9.00;4.90;;;;;;;;;;13114992;22;20368;-92
2023/09/26 23:11:38;;;;;;;7.78;4.25;;;;;;;;;;13114842;22;20374;-93
2023/09/26 23:16:40;;;;;;;7.37;4.57;;;;;;;;;;13113659;22;20432;-93
2023/09/26 23:21:42;;;;;;;5.88;4.05;;;;;;;;;;13113872;22;20371;-93
2023/09/26 23:26:46;;;;;;;8.70;4.47;;;;;;;;;;13113999;22;20367;-93
2023/09/26 23:31:48;;;;;;;8.30;5.20;;;;;;;;;;13139694;22;20527;-92
2023/09/26 23:36:51;;;;;;;6.85;4.28;;;;;;;;;;13114010;22;20371;-93
2023/09/26 23:41:55;;;;;;;8.13;4.83;;;;;;;;;;13113689;22;20397;-92
2023/09/26 23:46:57;;;;;;;7.10;4.82;;;;;;;;;;13113807;22;20396;-92
2023/09/26 23:51:59;;;;;;;8.80;4.60;;;;;;;;;;13113569;22;20383;-92
2023/09/26 23:57:03;;;;;;;5.65;4.18;;;;;;;;;;13113585;22;20420;-93
